sensor_id;sensor_type;location;lat;lon;timestamp;pressure;altitude;pressure_sealevel;temperature;humidity
69318;BME280;56457;52.190;4.440;2023-09-12T00:00:08;101510.28;;;20.59;100.00
69318;BME280;56457;52.190;4.440;2023-09-12T00:01:08;101508.47;;;20.60;100.00
69318;BME280;56457;52.190;4.440;2023-09-12T00:02:08;101506.69;;;20.60;100.00
69318;BME280;56457;52.190;4.440;2023-09-12T00:03:09;101515.78;;;20.55;100.00
69318;BME280;56457;52.190;4.440;2023-09-12T00:04:10;101511.50;;;20.51;100.00
69318;BME280;56457;52.190;4.440;2023-09-12T00:05:11;101502.69;;;20.49;100.00
69318;BME280;56457;52.190;4.440;2023-09-12T00:06:11;101512.44;;;20.50;100.00
69318;BME280;56457;52.190;4.440;2023-09-12T00:07:11;101508.94;;;20.48;100.00
69318;BME280;56457;52.190;4.440;2023-09-12T00:08:12;101499.22;;;20.47;100.00
69318;BME280;56457;52.190;4.440;2023-09-12T00:09:12;101508.72;;;20.54;100.00
69318;BME280;56457;52.190;4.440;2023-09-12T00:10:12;101506.19;;;20.51;100.00
69318;BME280;56457;52.190;4.440;2023-09-12T00:11:12;101505.34;;;20.49;100.00
69318;BME280;56457;52.190;4.440;2023-09-12T00:12:14;101503.56;;;20.49;100.00
69318;BME280;56457;52.190;4.440;2023-09-12T00:13:14;101502.66;;;20.50;100.00
69318;BME280;56457;52.190;4.440;2023-09-12T00:14:15;101503.53;;;20.51;100.00
69318;BME280;56457;52.190;4.440;2023-09-12T00:15:16;101506.75;;;20.59;100.00
69318;BME280;56457;52.190;4.440;2023-09-12T00:16:16;101508.41;;;20.61;100.00
69318;BME280;56457;52.190;4.440;2023-09-12T00:17:16;101508.25;;;20.66;100.00
69318;BME280;56457;52.190;4.440;2023-09-12T00:18:17;101500.25;;;20.66;100.00
69318;BME280;56457;52.190;4.440;2023-09-12T00:19:17;101503.84;;;20.65;100.00
69318;BME280;56457;52.190;4.440;2023-09-12T00:20:17;101502.19;;;20.62;100.00
69318;BME280;56457;52.190;4.440;2023-09-12T00:21:18;101502.19;;;20.62;100.00
69318;BME280;56457;52.190;4.440;2023-09-12T00:22:18;101500.19;;;20.67;100.00
69318;BME280;56457;52.190;4.440;2023-09-12T00:23:20;101505.47;;;20.69;100.00
69318;BME280;56457;52.190;4.440;2023-09-12T00:24:20;101499.13;;;20.72;100.00
69318;BME280;56457;52.190;4.440;2023-09-12T00:25:21;101497.34;;;20.72;100.00
69318;BME280;56457;52.190;4.440;2023-09-12T00:26:21;101494.81;;;20.69;100.00
69318;BME280;56457;52.190;4.440;2023-09-12T00:27:21;101497.34;;;20.72;100.00
69318;BME280;56457;52.190;4.440;2023-09-12T00:28:21;101493.00;;;20.69;100.00
69318;BME280;56457;52.190;4.440;2023-09-12T00:29:22;101498.03;;;20.77;100.00
69318;BME280;56457;52.190;4.440;2023-09-12T00:30:22;101494.75;;;20.70;100.00
69318;BME280;56457;52.190;4.440;2023-09-12T00:31:22;101498.19;;;20.73;100.00
69318;BME280;56457;52.190;4.440;2023-09-12T00:32:22;101498.50;;;20.65;100.00
69318;BME280;56457;52.190;4.440;2023-09-12T00:33:23;101506.44;;;20.66;100.00
69318;BME280;56457;52.190;4.440;2023-09-12T00:34:23;101500.69;;;20.77;100.00
69318;BME280;56457;52.190;4.440;2023-09-12T00:35:23;101493.50;;;20.79;100.00
69318;BME280;56457;52.190;4.440;2023-09-12T00:36:23;101498.97;;;20.76;100.00
69318;BME280;56457;52.190;4.440;2023-09-12T00:37:24;101500.94;;;20.71;100.00
69318;BME280;56457;52.190;4.440;2023-09-12T00:38:24;101497.28;;;20.74;100.00
69318;BME280;56457;52.190;4.440;2023-09-12T00:39:24;101497.16;;;20.77;100.00
69318;BME280;56457;52.190;4.440;2023-09-12T00:40:24;101490.81;;;20.79;100.00
69318;BME280;56457;52.190;4.440;2023-09-12T00:41:25;101489.09;;;20.78;100.00
69318;BME280;56457;52.190;4.440;2023-09-12T00:42:25;101496.22;;;20.78;100.00
69318;BME280;56457;52.190;4.440;2023-09-12T00:43:26;101493.81;;;20.72;100.00
69318;BME280;56457;52.190;4.440;2023-09-12T00:44:26;101481.28;;;20.74;100.00
69318;BME280;56457;52.190;4.440;2023-09-12T00:45:27;101485.88;;;20.70;100.00
69318;BME280;56457;52.190;4.440;2023-09-12T00:46:27;101480.72;;;20.65;100.00
69318;BME280;56457;52.190;4.440;2023-09-12T00:47:28;101479.09;;;20.61;100.00
69318;BME280;56457;52.190;4.440;2023-09-12T00:48:29;101480.88;;;20.61;100.00
69318;BME280;56457;52.190;4.440;2023-09-12T00:49:29;101473.72;;;20.63;100.00
69318;BME280;56457;52.190;4.440;2023-09-12T00:50:30;101472.09;;;20.59;100.00
69318;BME280;56457;52.190;4.440;2023-09-12T00:51:31;101475.00;;;20.53;100.00
69318;BME280;56457;52.190;4.440;2023-09-12T00:52:33;101477.81;;;20.50;100.00
69318;BME280;56457;52.190;4.440;2023-09-12T00:53:35;101477.50;;;20.57;100.00
69318;BME280;56457;52.190;4.440;2023-09-12T00:54:35;101470.22;;;20.61;100.00
69318;BME280;56457;52.190;4.440;2023-09-12T00:55:36;101472.63;;;20.68;100.00
69318;BME280;56457;52.190;4.440;2023-09-12T00:56:37;101466.53;;;20.65;100.00
69318;BME280;56457;52.190;4.440;2023-09-12T00:57:38;101468.94;;;20.71;100.00
69318;BME280;56457;52.190;4.440;2023-09-12T00:58:38;101472.66;;;20.67;100.00
69318;BME280;56457;52.190;4.440;2023-09-12T00:59:38;101470.91;;;20.66;100.00
69318;BME280;56457;52.190;4.440;2023-09-12T01:00:40;101468.16;;;20.69;100.00
69318;BME280;56457;52.190;4.440;2023-09-12T01:01:40;101468.94;;;20.71;100.00
69318;BME280;56457;52.190;4.440;2023-09-12T01:02:41;101464.66;;;20.67;100.00
69318;BME280;56457;52.190;4.440;2023-09-12T01:03:41;101476.63;;;20.57;100.00
69318;BME280;56457;52.190;4.440;2023-09-12T01:04:42;101472.41;;;20.51;100.00
69318;BME280;56457;52.190;4.440;2023-09-12T01:05:42;101476.81;;;20.52;100.00
69318;BME280;56457;52.190;4.440;2023-09-12T01:06:43;101474.88;;;20.56;100.00
69318;BME280;56457;52.190;4.440;2023-09-12T01:07:43;101480.16;;;20.57;100.00
69318;BME280;56457;52.190;4.440;2023-09-12T01:08:44;101473.91;;;20.58;100.00
69318;BME280;56457;52.190;4.440;2023-09-12T01:09:45;101467.19;;;20.48;100.00
69318;BME280;56457;52.190;4.440;2023-09-12T01:10:46;101467.25;;;20.47;100.00
69318;BME280;56457;52.190;4.440;2023-09-12T01:11:47;101465.50;;;20.46;100.00
69318;BME280;56457;52.190;4.440;2023-09-12T01:12:48;101476.03;;;20.49;100.00
69318;BME280;56457;52.190;4.440;2023-09-12T01:13:48;101471.53;;;20.51;100.00
69318;BME280;56457;52.190;4.440;2023-09-12T01:14:48;101474.00;;;20.55;100.00
69318;BME280;56457;52.190;4.440;2023-09-12T01:15:49;101468.19;;;20.46;100.00
69318;BME280;56457;52.190;4.440;2023-09-12T01:16:49;101474.56;;;20.40;100.00
69318;BME280;56457;52.190;4.440;2023-09-12T01:17:50;101480.00;;;20.37;100.00
69318;BME280;56457;52.190;4.440;2023-09-12T01:18:50;101476.63;;;20.33;100.00
69318;BME280;56457;52.190;4.440;2023-09-12T01:19:50;101478.47;;;20.31;100.00
69318;BME280;56457;52.190;4.440;2023-09-12T01:28:19;101469.53;;;20.09;100.00
69318;BME280;56457;52.190;4.440;2023-09-12T01:29:22;101468.63;;;20.10;100.00
69318;BME280;56457;52.190;4.440;2023-09-12T01:30:22;101461.66;;;20.06;100.00
69318;BME280;56457;52.190;4.440;2023-09-12T01:31:23;101463.34;;;20.08;100.00
69318;BME280;56457;52.190;4.440;2023-09-12T01:32:24;101466.13;;;20.05;100.00
69318;BME280;56457;52.190;4.440;2023-09-12T01:33:24;101469.47;;;20.10;100.00
69318;BME280;56457;52.190;4.440;2023-09-12T01:34:25;101464.09;;;20.12;100.00
69318;BME280;56457;52.190;4.440;2023-09-12T01:35:25;101469.31;;;20.15;100.00
69318;BME280;56457;52.190;4.440;2023-09-12T01:36:25;101468.50;;;20.13;100.00
69318;BME280;56457;52.190;4.440;2023-09-12T01:37:26;101462.97;;;20.19;100.00
69318;BME280;56457;52.190;4.440;2023-09-12T01:38:27;101468.94;;;20.24;100.00
69318;BME280;56457;52.190;4.440;2023-09-12T01:39:27;101466.34;;;20.23;100.00
69318;BME280;56457;52.190;4.440;2023-09-12T01:40:33;101459.06;;;20.28;100.00
69318;BME280;56457;52.190;4.440;2023-09-12T01:41:34;101460.06;;;20.25;100.00
69318;BME280;56457;52.190;4.440;2023-09-12T01:42:36;101462.09;;;20.19;100.00
69318;BME280;56457;52.190;4.440;2023-09-12T01:43:37;101454.97;;;20.19;100.00
69318;BME280;56457;52.190;4.440;2023-09-12T01:44:39;101465.66;;;20.17;100.00
69318;BME280;56457;52.190;4.440;2023-09-12T01:45:41;101463.75;;;20.21;100.00
69318;BME280;56457;52.190;4.440;2023-09-12T01:46:42;101456.63;;;20.22;100.00
69318;BME280;56457;52.190;4.440;2023-09-12T01:47:43;101463.81;;;20.20;100.00
69318;BME280;56457;52.190;4.440;2023-09-12T01:48:44;101462.25;;;20.14;100.00
69318;BME280;56457;52.190;4.440;2023-09-12T01:49:47;101462.34;;;20.11;100.00
69318;BME280;56457;52.190;4.440;2023-09-12T01:50:48;101459.00;;;20.06;100.00
69318;BME280;56457;52.190;4.440;2023-09-12T01:51:48;101461.88;;;20.00;100.00
69318;BME280;56457;52.190;4.440;2023-09-12T01:52:49;101456.31;;;20.06;100.00
69318;BME280;56457;52.190;4.440;2023-09-12T01:53:49;101453.66;;;20.06;100.00
69318;BME280;56457;52.190;4.440;2023-09-12T01:54:51;101455.44;;;20.07;100.00
69318;BME280;56457;52.190;4.440;2023-09-12T01:55:51;101450.13;;;20.05;100.00
69318;BME280;56457;52.190;4.440;2023-09-12T01:56:52;101455.66;;;20.01;100.00
69318;BME280;56457;52.190;4.440;2023-09-12T01:57:54;101463.81;;;19.96;100.00
69318;BME280;56457;52.190;4.440;2023-09-12T01:58:54;101457.47;;;19.99;100.00
69318;BME280;56457;52.190;4.440;2023-09-12T01:59:54;101462.00;;;19.97;100.00
69318;BME280;56457;52.190;4.440;2023-09-12T02:00:54;101460.44;;;19.91;100.00
69318;BME280;56457;52.190;4.440;2023-09-12T02:01:55;101461.53;;;19.85;100.00
69318;BME280;56457;52.190;4.440;2023-09-12T02:02:55;101463.22;;;19.88;100.00
69318;BME280;56457;52.190;4.440;2023-09-12T02:03:55;101458.88;;;19.85;100.00
69318;BME280;56457;52.190;4.440;2023-09-12T02:06:05;101458.06;;;19.83;100.00
69318;BME280;56457;52.190;4.440;2023-09-12T02:07:06;101462.53;;;19.83;100.00
69318;BME280;56457;52.190;4.440;2023-09-12T02:08:06;101465.03;;;19.87;100.00
69318;BME280;56457;52.190;4.440;2023-09-12T02:09:06;101458.94;;;19.84;100.00
69318;BME280;56457;52.190;4.440;2023-09-12T02:10:07;101458.16;;;19.80;100.00
69318;BME280;56457;52.190;4.440;2023-09-12T02:11:07;101451.09;;;19.79;100.00
69318;BME280;56457;52.190;4.440;2023-09-12T02:12:07;101451.97;;;19.80;100.00
69318;BME280;56457;52.190;4.440;2023-09-12T02:13:09;101460.88;;;19.79;100.00
69318;BME280;56457;52.190;4.440;2023-09-12T02:14:09;101456.56;;;19.76;100.00
69318;BME280;56457;52.190;4.440;2023-09-12T02:15:10;101460.78;;;19.82;100.00
69318;BME280;56457;52.190;4.440;2023-09-12T02:16:10;101458.78;;;19.88;100.00
69318;BME280;56457;52.190;4.440;2023-09-12T02:17:10;101459.56;;;19.90;100.00
69318;BME280;56457;52.190;4.440;2023-09-12T02:18:11;101452.34;;;19.94;100.00
69318;BME280;56457;52.190;4.440;2023-09-12T02:19:11;101458.63;;;19.92;100.00
69318;BME280;56457;52.190;4.440;2023-09-12T02:20:14;101452.16;;;19.99;100.00
69318;BME280;56457;52.190;4.440;2023-09-12T02:21:14;101452.06;;;20.02;100.00
69318;BME280;56457;52.190;4.440;2023-09-12T02:22:16;101458.19;;;20.04;100.00
69318;BME280;56457;52.190;4.440;2023-09-12T02:23:16;101461.41;;;20.12;100.00
69318;BME280;56457;52.190;4.440;2023-09-12T02:24:16;101453.19;;;20.18;100.00
69318;BME280;56457;52.190;4.440;2023-09-12T02:25:18;101462.75;;;20.24;100.00
69318;BME280;56457;52.190;4.440;2023-09-12T02:26:19;101455.53;;;20.27;100.00
69318;BME280;56457;52.190;4.440;2023-09-12T02:27:19;101461.50;;;20.34;100.00
69318;BME280;56457;52.190;4.440;2023-09-12T02:28:19;101457.72;;;20.39;100.00
69318;BME280;56457;52.190;4.440;2023-09-12T02:29:20;101448.97;;;20.36;100.00
69318;BME280;56457;52.190;4.440;2023-09-12T02:30:20;101451.00;;;20.29;100.00
69318;BME280;56457;52.190;4.440;2023-09-12T02:31:20;101456.22;;;20.32;100.00
69318;BME280;56457;52.190;4.440;2023-09-12T02:32:21;101460.22;;;20.21;100.00
69318;BME280;56457;52.190;4.440;2023-09-12T02:33:21;101460.69;;;20.08;100.00
69318;BME280;56457;52.190;4.440;2023-09-12T02:34:21;101461.56;;;20.09;100.00
69318;BME280;56457;52.190;4.440;2023-09-12T02:35:21;101459.06;;;20.28;100.00
69318;BME280;56457;52.190;4.440;2023-09-12T02:36:22;101459.13;;;20.26;100.00
69318;BME280;56457;52.190;4.440;2023-09-12T02:37:22;101461.56;;;20.32;100.00
69318;BME280;56457;52.190;4.440;2023-09-12T02:38:22;101458.69;;;20.37;100.00
69318;BME280;56457;52.190;4.440;2023-09-12T02:39:22;101456.94;;;20.37;100.00
69318;BME280;56457;52.190;4.440;2023-09-12T02:40:23;101452.56;;;20.35;100.00
69318;BME280;56457;52.190;4.440;2023-09-12T02:41:24;101460.72;;;20.30;100.00
69318;BME280;56457;52.190;4.440;2023-09-12T02:42:24;101461.50;;;20.34;100.00
69318;BME280;56457;52.190;4.440;2023-09-12T02:43:25;101462.34;;;20.34;100.00
69318;BME280;56457;52.190;4.440;2023-09-12T02:44:25;101463.28;;;20.33;100.00
69318;BME280;56457;52.190;4.440;2023-09-12T02:45:25;101460.78;;;20.29;100.00
69318;BME280;56457;52.190;4.440;2023-09-12T02:46:26;101458.28;;;20.24;100.00
69318;BME280;56457;52.190;4.440;2023-09-12T02:47:26;101453.56;;;20.32;100.00
69318;BME280;56457;52.190;4.440;2023-09-12T02:48:26;101458.19;;;20.27;100.00
69318;BME280;56457;52.190;4.440;2023-09-12T02:49:26;101450.38;;;20.23;100.00
69318;BME280;56457;52.190;4.440;2023-09-12T02:50:27;101457.72;;;20.16;100.00
69318;BME280;56457;52.190;4.440;2023-09-12T02:51:27;101455.00;;;20.17;100.00
69318;BME280;56457;52.190;4.440;2023-09-12T02:52:27;101461.16;;;20.20;100.00
69318;BME280;56457;52.190;4.440;2023-09-12T02:53:28;101453.03;;;20.23;100.00
69318;BME280;56457;52.190;4.440;2023-09-12T02:54:28;101447.63;;;20.24;100.00
69318;BME280;56457;52.190;4.440;2023-09-12T02:55:28;101447.06;;;20.16;100.00
69318;BME280;56457;52.190;4.440;2023-09-12T02:56:29;101446.84;;;20.22;100.00
69318;BME280;56457;52.190;4.440;2023-09-12T02:57:30;101443.38;;;20.20;100.00
69318;BME280;56457;52.190;4.440;2023-09-12T02:58:30;101444.97;;;20.24;100.00
69318;BME280;56457;52.190;4.440;2023-09-12T02:59:31;101441.56;;;20.21;100.00
69318;BME280;56457;52.190;4.440;2023-09-12T03:00:31;101438.16;;;20.17;100.00
69318;BME280;56457;52.190;4.440;2023-09-12T03:01:31;101438.91;;;20.21;100.00
69318;BME280;56457;52.190;4.440;2023-09-12T03:02:31;101442.53;;;20.18;100.00
69318;BME280;56457;52.190;4.440;2023-09-12T03:03:32;101437.22;;;20.18;100.00
69318;BME280;56457;52.190;4.440;2023-09-12T03:04:34;101440.00;;;20.15;100.00
69318;BME280;56457;52.190;4.440;2023-09-12T03:05:35;101439.16;;;20.14;100.00
69318;BME280;56457;52.190;4.440;2023-09-12T03:06:35;101436.47;;;20.14;100.00
69318;BME280;56457;52.190;4.440;2023-09-12T03:07:36;101435.78;;;20.09;100.00
69318;BME280;56457;52.190;4.440;2023-09-12T03:08:36;101436.81;;;20.05;100.00
69318;BME280;56457;52.190;4.440;2023-09-12T03:09:37;101435.31;;;19.98;100.00
69318;BME280;56457;52.190;4.440;2023-09-12T03:10:38;101440.78;;;19.95;100.00
69318;BME280;56457;52.190;4.440;2023-09-12T03:11:38;101438.28;;;19.90;100.00
69318;BME280;56457;52.190;4.440;2023-09-12T03:12:38;101434.81;;;19.88;100.00
69318;BME280;56457;52.190;4.440;2023-09-12T03:13:39;101433.88;;;19.89;100.00
69318;BME280;56457;52.190;4.440;2023-09-12T03:14:40;101434.44;;;19.98;100.00
69318;BME280;56457;52.190;4.440;2023-09-12T03:15:40;101432.16;;;19.88;100.00
69318;BME280;56457;52.190;4.440;2023-09-12T03:16:41;101436.84;;;19.80;100.00
69318;BME280;56457;52.190;4.440;2023-09-12T03:17:41;101440.59;;;19.75;100.00
69318;BME280;56457;52.190;4.440;2023-09-12T03:18:42;101435.34;;;19.73;100.00
69318;BME280;56457;52.190;4.440;2023-09-12T03:19:42;101440.75;;;19.72;100.00
69318;BME280;56457;52.190;4.440;2023-09-12T03:20:42;101442.19;;;19.80;100.00
69318;BME280;56457;52.190;4.440;2023-09-12T03:21:42;101441.22;;;19.83;100.00
69318;BME280;56457;52.190;4.440;2023-09-12T03:22:43;101442.78;;;19.88;100.00
69318;BME280;56457;52.190;4.440;2023-09-12T03:23:43;101442.50;;;19.96;100.00
69318;BME280;56457;52.190;4.440;2023-09-12T03:24:43;101438.81;;;20.00;100.00
69318;BME280;56457;52.190;4.440;2023-09-12T03:25:45;101436.25;;;19.97;100.00
69318;BME280;56457;52.190;4.440;2023-09-12T03:26:45;101437.91;;;20.00;100.00
69318;BME280;56457;52.190;4.440;2023-09-12T03:27:45;101439.38;;;20.08;100.00
69318;BME280;56457;52.190;4.440;2023-09-12T03:28:45;101441.63;;;19.96;100.00
69318;BME280;56457;52.190;4.440;2023-09-12T03:29:46;101441.41;;;20.02;100.00
69318;BME280;56457;52.190;4.440;2023-09-12T03:30:47;101441.25;;;20.06;100.00
69318;BME280;56457;52.190;4.440;2023-09-12T03:31:47;101441.00;;;20.12;100.00
69318;BME280;56457;52.190;4.440;2023-09-12T03:32:47;101437.22;;;20.18;100.00
69318;BME280;56457;52.190;4.440;2023-09-12T03:33:48;101435.69;;;20.12;100.00
69318;BME280;56457;52.190;4.440;2023-09-12T03:34:50;101438.38;;;20.11;100.00
69318;BME280;56457;52.190;4.440;2023-09-12T03:35:50;101442.78;;;20.12;100.00
69318;BME280;56457;52.190;4.440;2023-09-12T03:36:50;101448.00;;;20.15;100.00
69318;BME280;56457;52.190;4.440;2023-09-12T03:37:51;101451.47;;;20.17;100.00
69318;BME280;56457;52.190;4.440;2023-09-12T03:38:51;101448.09;;;20.12;100.00
69318;BME280;56457;52.190;4.440;2023-09-12T03:39:51;101452.09;;;20.24;100.00
69318;BME280;56457;52.190;4.440;2023-09-12T03:40:52;101453.78;;;20.26;100.00
69318;BME280;56457;52.190;4.440;2023-09-12T03:41:52;101443.84;;;20.31;100.00
69318;BME280;56457;52.190;4.440;2023-09-12T03:42:52;101442.84;;;20.34;100.00
69318;BME280;56457;52.190;4.440;2023-09-12T03:43:53;101446.53;;;20.30;100.00
69318;BME280;56457;52.190;4.440;2023-09-12T03:44:54;101438.59;;;20.28;100.00
69318;BME280;56457;52.190;4.440;2023-09-12T03:45:54;101440.88;;;20.39;100.00
69318;BME280;56457;52.190;4.440;2023-09-12T03:46:54;101445.25;;;20.40;100.00
69318;BME280;56457;52.190;4.440;2023-09-12T03:47:55;101446.13;;;20.40;100.00
69318;BME280;56457;52.190;4.440;2023-09-12T03:48:55;101439.00;;;20.41;100.00
69318;BME280;56457;52.190;4.440;2023-09-12T03:49:55;101446.94;;;20.42;100.00
69318;BME280;56457;52.190;4.440;2023-09-12T03:50:55;101440.94;;;20.37;100.00
69318;BME280;56457;52.190;4.440;2023-09-12T03:51:56;101439.25;;;20.35;100.00
69318;BME280;56457;52.190;4.440;2023-09-12T03:52:56;101444.50;;;20.36;100.00
69318;BME280;56457;52.190;4.440;2023-09-12T03:53:57;101445.34;;;20.38;100.00
69318;BME280;56457;52.190;4.440;2023-09-12T03:54:57;101441.97;;;20.33;100.00
69318;BME280;56457;52.190;4.440;2023-09-12T03:55:58;101443.13;;;20.26;100.00
69318;BME280;56457;52.190;4.440;2023-09-12T03:56:58;101447.59;;;20.26;100.00
69318;BME280;56457;52.190;4.440;2023-09-12T03:57:58;101444.09;;;20.24;100.00
69318;BME280;56457;52.190;4.440;2023-09-12T03:58:58;101439.47;;;20.29;100.00
69318;BME280;56457;52.190;4.440;2023-09-12T03:59:59;101442.03;;;20.32;100.00
69318;BME280;56457;52.190;4.440;2023-09-12T04:01:00;101444.34;;;20.41;100.00
69318;BME280;56457;52.190;4.440;2023-09-12T04:02:01;101439.25;;;20.35;100.00
69318;BME280;56457;52.190;4.440;2023-09-12T04:03:01;101439.31;;;20.33;100.00
69318;BME280;56457;52.190;4.440;2023-09-12T04:04:02;101439.38;;;20.32;100.00
69318;BME280;56457;52.190;4.440;2023-09-12T04:05:02;101442.22;;;20.27;100.00
69318;BME280;56457;52.190;4.440;2023-09-12T04:06:02;101445.84;;;20.25;100.00
69318;BME280;56457;52.190;4.440;2023-09-12T04:07:03;101443.25;;;20.23;100.00
69318;BME280;56457;52.190;4.440;2023-09-12T04:08:04;101452.78;;;20.29;100.00
69318;BME280;56457;52.190;4.440;2023-09-12T04:09:04;101459.25;;;20.47;100.00
69318;BME280;56457;52.190;4.440;2023-09-12T04:10:04;101443.41;;;20.42;100.00
69318;BME280;56457;52.190;4.440;2023-09-12T04:11:05;101444.63;;;20.33;100.00
69318;BME280;56457;52.190;4.440;2023-09-12T04:12:05;101448.03;;;20.37;100.00
69318;BME280;56457;52.190;4.440;2023-09-12T04:13:07;101441.91;;;20.35;100.00
69318;BME280;56457;52.190;4.440;2023-09-12T04:14:07;101439.13;;;20.38;100.00
69318;BME280;56457;52.190;4.440;2023-09-12T04:15:07;101449.91;;;20.35;100.00
69318;BME280;56457;52.190;4.440;2023-09-12T04:16:08;101437.50;;;20.34;100.00
69318;BME280;56457;52.190;4.440;2023-09-12T04:17:08;101444.25;;;20.42;100.00
69318;BME280;56457;52.190;4.440;2023-09-12T04:18:08;101450.41;;;20.44;100.00
69318;BME280;56457;52.190;4.440;2023-09-12T04:19:09;101443.31;;;20.45;100.00
69318;BME280;56457;52.190;4.440;2023-09-12T04:20:09;101443.25;;;20.47;100.00
69318;BME280;56457;52.190;4.440;2023-09-12T04:21:13;101454.31;;;20.59;100.00
69318;BME280;56457;52.190;4.440;2023-09-12T04:22:14;101448.97;;;20.59;100.00
69318;BME280;56457;52.190;4.440;2023-09-12T04:23:14;101449.59;;;20.66;100.00
69318;BME280;56457;52.190;4.440;2023-09-12T04:24:14;101446.13;;;20.64;100.00
69318;BME280;56457;52.190;4.440;2023-09-12T04:25:16;101443.53;;;20.62;100.00
69318;BME280;56457;52.190;4.440;2023-09-12T04:26:16;101434.94;;;20.54;100.00
69318;BME280;56457;52.190;4.440;2023-09-12T04:27:16;101436.56;;;20.58;100.00
69318;BME280;56457;52.190;4.440;2023-09-12T04:28:17;101436.88;;;20.51;100.00
69318;BME280;56457;52.190;4.440;2023-09-12T04:29:17;101430.94;;;20.42;100.00
69318;BME280;56457;52.190;4.440;2023-09-12T04:30:17;101429.22;;;20.41;100.00
69318;BME280;56457;52.190;4.440;2023-09-12T04:31:17;101434.47;;;20.43;100.00
69318;BME280;56457;52.190;4.440;2023-09-12T04:32:18;101435.47;;;20.40;100.00
69318;BME280;56457;52.190;4.440;2023-09-12T04:33:23;101434.66;;;20.38;100.00
69318;BME280;56457;52.190;4.440;2023-09-12T04:34:23;101428.59;;;20.35;100.00
69318;BME280;56457;52.190;4.440;2023-09-12T04:35:23;101438.28;;;20.37;100.00
69318;BME280;56457;52.190;4.440;2023-09-12T04:36:25;101439.16;;;20.36;100.00
69318;BME280;56457;52.190;4.440;2023-09-12T04:37:25;101438.94;;;20.42;100.00
69318;BME280;56457;52.190;4.440;2023-09-12T04:38:26;101438.13;;;20.40;100.00
69318;BME280;56457;52.190;4.440;2023-09-12T04:39:26;101437.28;;;20.40;100.00
69318;BME280;56457;52.190;4.440;2023-09-12T04:40:26;101434.53;;;20.41;100.00
69318;BME280;56457;52.190;4.440;2023-09-12T04:41:26;101432.66;;;20.45;100.00
69318;BME280;56457;52.190;4.440;2023-09-12T04:42:27;101433.53;;;20.46;100.00
69318;BME280;56457;52.190;4.440;2023-09-12T04:43:27;101438.78;;;20.47;100.00
69318;BME280;56457;52.190;4.440;2023-09-12T04:44:27;101432.69;;;20.43;100.00
69318;BME280;56457;52.190;4.440;2023-09-12T04:45:27;101438.84;;;20.46;100.00
69318;BME280;56457;52.190;4.440;2023-09-12T04:46:28;101432.69;;;20.43;100.00
69318;BME280;56457;52.190;4.440;2023-09-12T04:47:28;101444.19;;;20.46;100.00
69318;BME280;56457;52.190;4.440;2023-09-12T04:48:28;101442.59;;;20.40;100.00
69318;BME280;56457;52.190;4.440;2023-09-12T04:49:28;101440.28;;;20.31;100.00
69318;BME280;56457;52.190;4.440;2023-09-12T04:50:29;101444.56;;;20.35;100.00
69318;BME280;56457;52.190;4.440;2023-09-12T04:51:29;101447.31;;;20.33;100.00
69318;BME280;56457;52.190;4.440;2023-09-12T04:52:29;101449.16;;;20.31;100.00
69318;BME280;56457;52.190;4.440;2023-09-12T04:53:30;101448.22;;;20.32;100.00
69318;BME280;56457;52.190;4.440;2023-09-12T04:54:36;101448.41;;;20.28;100.00
69318;BME280;56457;52.190;4.440;2023-09-12T04:55:37;101453.72;;;20.28;100.00
69318;BME280;56457;52.190;4.440;2023-09-12T04:56:37;101456.56;;;20.23;100.00
69318;BME280;56457;52.190;4.440;2023-09-12T04:57:37;101455.63;;;20.24;100.00
69318;BME280;56457;52.190;4.440;2023-09-12T04:58:37;101452.94;;;20.26;100.00
69318;BME280;56457;52.190;4.440;2023-09-12T04:59:38;101452.72;;;20.30;100.00
69318;BME280;56457;52.190;4.440;2023-09-12T05:00:38;101456.31;;;20.29;100.00
69318;BME280;56457;52.190;4.440;2023-09-12T05:01:39;101450.03;;;20.32;100.00
69318;BME280;56457;52.190;4.440;2023-09-12T05:02:39;101451.53;;;20.39;100.00
69318;BME280;56457;52.190;4.440;2023-09-12T05:03:40;101447.00;;;20.41;100.00
69318;BME280;56457;52.190;4.440;2023-09-12T05:04:40;101449.66;;;20.41;100.00
69318;BME280;56457;52.190;4.440;2023-09-12T05:05:40;101453.31;;;20.38;100.00
69318;BME280;56457;52.190;4.440;2023-09-12T05:06:40;101456.66;;;20.45;100.00
69318;BME280;56457;52.190;4.440;2023-09-12T05:07:42;101458.31;;;20.48;100.00
69318;BME280;56457;52.190;4.440;2023-09-12T05:08:42;101455.41;;;20.54;100.00
69318;BME280;56457;52.190;4.440;2023-09-12T05:09:42;101453.38;;;20.60;100.00
69318;BME280;56457;52.190;4.440;2023-09-12T05:10:43;101453.28;;;20.62;100.00
69318;BME280;56457;52.190;4.440;2023-09-12T05:11:44;101452.44;;;20.61;100.00
69318;BME280;56457;52.190;4.440;2023-09-12T05:12:44;101450.53;;;20.65;100.00
69318;BME280;56457;52.190;4.440;2023-09-12T05:13:44;101447.63;;;20.71;100.00
69318;BME280;56457;52.190;4.440;2023-09-12T05:14:45;101457.16;;;20.77;100.00
69318;BME280;56457;52.190;4.440;2023-09-12T05:15:45;101450.38;;;20.68;100.00
69318;BME280;56457;52.190;4.440;2023-09-12T05:16:46;101453.81;;;20.72;100.00
69318;BME280;56457;52.190;4.440;2023-09-12T05:17:46;101451.84;;;20.77;100.00
69318;BME280;56457;52.190;4.440;2023-09-12T05:18:47;101445.63;;;20.76;100.00
69318;BME280;56457;52.190;4.440;2023-09-12T05:19:49;101450.97;;;20.76;100.00
69318;BME280;56457;52.190;4.440;2023-09-12T05:20:49;101446.59;;;20.74;100.00